sensor_id;sensor_type;location;lat;lon;timestamp;P1;durP1;ratioP1;P2;durP2;ratioP2
57778;SDS011;43608;49.486;9.640;2024-03-23T00:52:10;5.40;;;3.83;;
57778;SDS011;43608;49.486;9.640;2024-03-23T00:52:40;5.13;;;4.03;;
57778;SDS011;43608;49.486;9.640;2024-03-23T00:53:41;5.82;;;4.32;;
57778;SDS011;43608;49.486;9.640;2024-03-23T00:54:12;4.95;;;4.20;;
57778;SDS011;43608;49.486;9.640;2024-03-23T00:54:43;4.85;;;3.95;;
57778;SDS011;43608;49.486;9.640;2024-03-23T00:55:13;6.03;;;4.30;;
57778;SDS011;43608;49.486;9.640;2024-03-23T00:55:44;5.15;;;4.05;;
57778;SDS011;43608;49.486;9.640;2024-03-23T00:56:14;5.50;;;4.40;;
57778;SDS011;43608;49.486;9.640;2024-03-23T00:56:44;4.82;;;3.97;;
57778;SDS011;43608;49.486;9.640;2024-03-23T00:57:15;6.18;;;4.32;;
57778;SDS011;43608;49.486;9.640;2024-03-23T00:57:45;4.20;;;3.80;;
57778;SDS011;43608;49.486;9.640;2024-03-23T00:58:15;4.93;;;4.20;;
57778;SDS011;43608;49.486;9.640;2024-03-23T00:58:46;4.97;;;3.70;;
57778;SDS011;43608;49.486;9.640;2024-03-23T00:59:16;5.03;;;4.07;;
57778;SDS011;43608;49.486;9.640;2024-03-23T00:59:46;4.80;;;4.20;;
57778;SDS011;43608;49.486;9.640;2024-03-23T01:00:17;5.10;;;4.00;;
57778;SDS011;43608;49.486;9.640;2024-03-23T01:00:47;5.10;;;4.10;;
57778;SDS011;43608;49.486;9.640;2024-03-23T01:01:18;5.32;;;3.88;;
57778;SDS011;43608;49.486;9.640;2024-03-23T01:01:48;5.45;;;3.90;;
57778;SDS011;43608;49.486;9.640;2024-03-23T01:02:18;4.35;;;3.60;;
57778;SDS011;43608;49.486;9.640;2024-03-23T01:02:49;4.55;;;3.70;;
57778;SDS011;43608;49.486;9.640;2024-03-23T01:03:19;5.18;;;4.10;;
57778;SDS011;43608;49.486;9.640;2024-03-23T01:03:50;5.35;;;3.92;;
57778;SDS011;43608;49.486;9.640;2024-03-23T01:04:20;4.93;;;3.70;;
57778;SDS011;43608;49.486;9.640;2024-03-23T01:04:50;5.47;;;4.05;;
57778;SDS011;43608;49.486;9.640;2024-03-23T01:05:21;4.50;;;3.70;;
57778;SDS011;43608;49.486;9.640;2024-03-23T01:05:51;4.60;;;3.45;;
57778;SDS011;43608;49.486;9.640;2024-03-23T01:06:24;4.65;;;3.80;;
57778;SDS011;43608;49.486;9.640;2024-03-23T01:06:54;5.50;;;3.92;;
57778;SDS011;43608;49.486;9.640;2024-03-23T01:07:25;5.45;;;3.65;;
57778;SDS011;43608;49.486;9.640;2024-03-23T01:07:55;4.82;;;3.90;;
57778;SDS011;43608;49.486;9.640;2024-03-23T01:08:25;5.05;;;3.70;;
57778;SDS011;43608;49.486;9.640;2024-03-23T01:08:55;5.18;;;4.05;;
57778;SDS011;43608;49.486;9.640;2024-03-23T01:09:26;5.47;;;3.85;;
57778;SDS011;43608;49.486;9.640;2024-03-23T01:09:56;4.72;;;3.60;;
57778;SDS011;43608;49.486;9.640;2024-03-23T01:10:26;4.90;;;3.80;;
57778;SDS011;43608;49.486;9.640;2024-03-23T01:10:57;4.97;;;3.60;;
57778;SDS011;43608;49.486;9.640;2024-03-23T01:11:28;4.43;;;3.70;;
57778;SDS011;43608;49.486;9.640;2024-03-23T01:11:59;4.68;;;3.85;;
57778;SDS011;43608;49.486;9.640;2024-03-23T01:12:29;4.78;;;3.70;;
57778;SDS011;43608;49.486;9.640;2024-03-23T01:13:00;5.13;;;3.75;;
57778;SDS011;43608;49.486;9.640;2024-03-23T01:13:30;4.75;;;3.78;;
57778;SDS011;43608;49.486;9.640;2024-03-23T01:14:00;4.47;;;3.30;;
57778;SDS011;43608;49.486;9.640;2024-03-23T01:14:31;5.75;;;4.10;;
57778;SDS011;43608;49.486;9.640;2024-03-23T01:15:01;4.45;;;3.60;;
57778;SDS011;43608;49.486;9.640;2024-03-23T01:15:32;4.50;;;3.60;;
57778;SDS011;43608;49.486;9.640;2024-03-23T01:16:02;4.90;;;3.90;;
57778;SDS011;43608;49.486;9.640;2024-03-23T01:16:33;4.80;;;3.80;;
57778;SDS011;43608;49.486;9.640;2024-03-23T01:17:03;4.82;;;3.78;;
57778;SDS011;43608;49.486;9.640;2024-03-23T01:17:34;4.95;;;3.90;;
57778;SDS011;43608;49.486;9.640;2024-03-23T01:18:04;5.07;;;3.88;;
57778;SDS011;43608;49.486;9.640;2024-03-23T01:18:34;4.57;;;3.78;;
57778;SDS011;43608;49.486;9.640;2024-03-23T01:19:05;5.45;;;3.92;;
57778;SDS011;43608;49.486;9.640;2024-03-23T01:19:36;4.75;;;3.75;;
57778;SDS011;43608;49.486;9.640;2024-03-23T01:20:06;4.32;;;3.70;;
57778;SDS011;43608;49.486;9.640;2024-03-23T01:20:37;4.80;;;3.60;;
57778;SDS011;43608;49.486;9.640;2024-03-23T01:21:07;4.45;;;3.65;;
57778;SDS011;43608;49.486;9.640;2024-03-23T01:21:38;4.55;;;3.63;;
57778;SDS011;43608;49.486;9.640;2024-03-23T01:22:08;4.32;;;3.47;;
57778;SDS011;43608;49.486;9.640;2024-03-23T01:22:40;4.20;;;3.70;;
57778;SDS011;43608;49.486;9.640;2024-03-23T01:23:10;4.20;;;3.50;;
57778;SDS011;43608;49.486;9.640;2024-03-23T01:23:41;4.85;;;3.50;;
57778;SDS011;43608;49.486;9.640;2024-03-23T01:24:12;4.95;;;3.70;;
57778;SDS011;43608;49.486;9.640;2024-03-23T01:24:42;4.53;;;3.70;;
57778;SDS011;43608;49.486;9.640;2024-03-23T01:25:13;4.65;;;3.60;;
57778;SDS011;43608;49.486;9.640;2024-03-23T01:25:43;5.57;;;3.50;;
57778;SDS011;43608;49.486;9.640;2024-03-23T01:26:13;4.40;;;3.65;;
57778;SDS011;43608;49.486;9.640;2024-03-23T01:26:44;4.22;;;3.33;;
57778;SDS011;43608;49.486;9.640;2024-03-23T01:27:15;3.95;;;3.30;;
57778;SDS011;43608;49.486;9.640;2024-03-23T01:27:45;4.50;;;3.50;;
57778;SDS011;43608;49.486;9.640;2024-03-23T01:28:15;5.28;;;3.83;;
57778;SDS011;43608;49.486;9.640;2024-03-23T01:28:46;5.25;;;4.13;;
57778;SDS011;43608;49.486;9.640;2024-03-23T01:29:16;5.15;;;3.95;;
57778;SDS011;43608;49.486;9.640;2024-03-23T01:29:46;4.35;;;3.60;;
57778;SDS011;43608;49.486;9.640;2024-03-23T01:30:17;5.32;;;4.03;;
57778;SDS011;43608;49.486;9.640;2024-03-23T01:30:48;4.80;;;3.67;;
57778;SDS011;43608;49.486;9.640;2024-03-23T01:31:18;5.00;;;3.53;;
57778;SDS011;43608;49.486;9.640;2024-03-23T01:31:48;4.40;;;3.70;;
57778;SDS011;43608;49.486;9.640;2024-03-23T01:32:21;4.65;;;3.70;;
57778;SDS011;43608;49.486;9.640;2024-03-23T01:32:52;4.45;;;3.70;;
57778;SDS011;43608;49.486;9.640;2024-03-23T01:33:22;5.22;;;3.72;;
57778;SDS011;43608;49.486;9.640;2024-03-23T01:33:52;4.90;;;3.50;;
57778;SDS011;43608;49.486;9.640;2024-03-23T01:34:23;4.53;;;3.53;;
57778;SDS011;43608;49.486;9.640;2024-03-23T01:34:54;4.18;;;3.65;;
57778;SDS011;43608;49.486;9.640;2024-03-23T01:35:25;4.30;;;3.40;;
57778;SDS011;43608;49.486;9.640;2024-03-23T01:35:55;4.35;;;3.53;;
57778;SDS011;43608;49.486;9.640;2024-03-23T01:36:25;4.75;;;3.65;;
57778;SDS011;43608;49.486;9.640;2024-03-23T01:36:56;4.95;;;3.75;;
57778;SDS011;43608;49.486;9.640;2024-03-23T01:37:26;4.10;;;3.13;;
57778;SDS011;43608;49.486;9.640;2024-03-23T01:37:56;4.78;;;3.70;;
57778;SDS011;43608;49.486;9.640;2024-03-23T01:38:27;4.53;;;3.22;;
57778;SDS011;43608;49.486;9.640;2024-03-23T01:38:57;4.50;;;3.60;;
57778;SDS011;43608;49.486;9.640;2024-03-23T01:39:28;5.63;;;3.42;;
57778;SDS011;43608;49.486;9.640;2024-03-23T01:39:58;4.45;;;3.72;;
57778;SDS011;43608;49.486;9.640;2024-03-23T01:40:28;4.30;;;3.50;;
57778;SDS011;43608;49.486;9.640;2024-03-23T01:41:02;4.53;;;3.45;;
57778;SDS011;43608;49.486;9.640;2024-03-23T01:41:32;4.32;;;3.22;;
57778;SDS011;43608;49.486;9.640;2024-03-23T01:42:03;4.75;;;3.63;;
57778;SDS011;43608;49.486;9.640;2024-03-23T01:42:33;4.68;;;3.60;;
57778;SDS011;43608;49.486;9.640;2024-03-23T01:43:04;3.97;;;3.35;;
57778;SDS011;43608;49.486;9.640;2024-03-23T01:43:37;4.68;;;3.75;;
57778;SDS011;43608;49.486;9.640;2024-03-23T01:44:08;4.10;;;3.40;;
57778;SDS011;43608;49.486;9.640;2024-03-23T01:44:38;4.78;;;3.53;;
57778;SDS011;43608;49.486;9.640;2024-03-23T01:45:09;4.57;;;3.60;;
57778;SDS011;43608;49.486;9.640;2024-03-23T01:45:42;4.45;;;3.53;;
57778;SDS011;43608;49.486;9.640;2024-03-23T01:46:12;4.90;;;3.67;;
57778;SDS011;43608;49.486;9.640;2024-03-23T01:46:43;5.03;;;3.60;;
57778;SDS011;43608;49.486;9.640;2024-03-23T01:47:14;4.43;;;3.47;;
57778;SDS011;43608;49.486;9.640;2024-03-23T01:47:45;4.78;;;3.55;;
57778;SDS011;43608;49.486;9.640;2024-03-23T01:48:15;4.50;;;3.38;;
57778;SDS011;43608;49.486;9.640;2024-03-23T01:48:45;4.43;;;3.53;;
57778;SDS011;43608;49.486;9.640;2024-03-23T01:49:16;4.18;;;3.50;;
57778;SDS011;43608;49.486;9.640;2024-03-23T01:49:46;4.00;;;3.35;;
57778;SDS011;43608;49.486;9.640;2024-03-23T01:50:17;4.00;;;3.42;;
57778;SDS011;43608;49.486;9.640;2024-03-23T01:50:47;4.32;;;3.40;;
57778;SDS011;43608;49.486;9.640;2024-03-23T01:51:18;4.13;;;3.50;;
57778;SDS011;43608;49.486;9.640;2024-03-23T01:51:49;4.40;;;3.47;;
57778;SDS011;43608;49.486;9.640;2024-03-23T01:52:19;4.28;;;3.42;;
57778;SDS011;43608;49.486;9.640;2024-03-23T01:52:50;4.05;;;3.35;;
57778;SDS011;43608;49.486;9.640;2024-03-23T01:53:20;4.38;;;3.55;;
57778;SDS011;43608;49.486;9.640;2024-03-23T01:53:53;3.80;;;3.30;;
57778;SDS011;43608;49.486;9.640;2024-03-23T01:54:24;4.28;;;3.50;;
57778;SDS011;43608;49.486;9.640;2024-03-23T01:54:55;4.03;;;3.28;;
57778;SDS011;43608;49.486;9.640;2024-03-23T01:55:25;4.10;;;3.45;;
57778;SDS011;43608;49.486;9.640;2024-03-23T01:55:56;4.07;;;3.35;;
57778;SDS011;43608;49.486;9.640;2024-03-23T01:56:27;3.95;;;3.40;;
57778;SDS011;43608;49.486;9.640;2024-03-23T01:56:57;4.50;;;3.58;;
57778;SDS011;43608;49.486;9.640;2024-03-23T01:57:28;4.15;;;3.20;;
57778;SDS011;43608;49.486;9.640;2024-03-23T01:57:59;3.90;;;3.40;;
57778;SDS011;43608;49.486;9.640;2024-03-23T01:58:30;3.88;;;3.25;;
57778;SDS011;43608;49.486;9.640;2024-03-23T01:59:04;4.32;;;3.58;;
57778;SDS011;43608;49.486;9.640;2024-03-23T01:59:35;4.47;;;3.40;;
57778;SDS011;43608;49.486;9.640;2024-03-23T02:00:06;4.13;;;3.30;;
57778;SDS011;43608;49.486;9.640;2024-03-23T02:00:37;4.57;;;3.20;;
57778;SDS011;43608;49.486;9.640;2024-03-23T02:01:07;4.57;;;3.50;;
57778;SDS011;43608;49.486;9.640;2024-03-23T02:01:38;4.15;;;3.20;;
57778;SDS011;43608;49.486;9.640;2024-03-23T02:02:08;4.40;;;3.20;;
57778;SDS011;43608;49.486;9.640;2024-03-23T02:02:42;5.00;;;3.35;;
57778;SDS011;43608;49.486;9.640;2024-03-23T02:03:26;3.95;;;3.20;;
57778;SDS011;43608;49.486;9.640;2024-03-23T02:03:57;4.55;;;3.38;;
57778;SDS011;43608;49.486;9.640;2024-03-23T02:04:28;4.60;;;3.42;;
57778;SDS011;43608;49.486;9.640;2024-03-23T02:04:58;4.15;;;3.40;;
57778;SDS011;43608;49.486;9.640;2024-03-23T02:05:29;4.38;;;3.38;;
57778;SDS011;43608;49.486;9.640;2024-03-23T02:05:59;4.05;;;3.40;;
57778;SDS011;43608;49.486;9.640;2024-03-23T02:06:30;4.90;;;3.45;;
57778;SDS011;43608;49.486;9.640;2024-03-23T02:07:00;4.13;;;3.40;;
57778;SDS011;43608;49.486;9.640;2024-03-23T02:07:31;4.75;;;3.45;;
57778;SDS011;43608;49.486;9.640;2024-03-23T02:08:01;3.63;;;3.22;;
57778;SDS011;43608;49.486;9.640;2024-03-23T02:08:32;3.58;;;3.08;;
57778;SDS011;43608;49.486;9.640;2024-03-23T02:09:02;3.80;;;3.05;;
57778;SDS011;43608;49.486;9.640;2024-03-23T02:09:33;3.97;;;3.20;;
57778;SDS011;43608;49.486;9.640;2024-03-23T02:10:04;4.57;;;3.53;;
57778;SDS011;43608;49.486;9.640;2024-03-23T02:10:36;3.90;;;3.10;;
57778;SDS011;43608;49.486;9.640;2024-03-23T02:11:06;4.10;;;3.38;;
57778;SDS011;43608;49.486;9.640;2024-03-23T02:11:36;4.43;;;3.35;;
57778;SDS011;43608;49.486;9.640;2024-03-23T02:12:07;4.18;;;3.33;;
57778;SDS011;43608;49.486;9.640;2024-03-23T02:12:37;4.10;;;3.03;;
57778;SDS011;43608;49.486;9.640;2024-03-23T02:13:08;3.83;;;3.20;;
57778;SDS011;43608;49.486;9.640;2024-03-23T02:13:39;3.72;;;3.10;;
57778;SDS011;43608;49.486;9.640;2024-03-23T02:14:09;4.85;;;3.30;;
57778;SDS011;43608;49.486;9.640;2024-03-23T02:14:40;4.07;;;3.35;;
57778;SDS011;43608;49.486;9.640;2024-03-23T02:15:10;3.85;;;3.13;;
57778;SDS011;43608;49.486;9.640;2024-03-23T02:15:40;4.20;;;3.35;;
57778;SDS011;43608;49.486;9.640;2024-03-23T02:16:11;3.88;;;3.20;;
57778;SDS011;43608;49.486;9.640;2024-03-23T02:16:43;3.90;;;3.20;;
57778;SDS011;43608;49.486;9.640;2024-03-23T02:17:13;3.80;;;3.25;;
57778;SDS011;43608;49.486;9.640;2024-03-23T02:17:43;4.10;;;3.20;;
57778;SDS011;43608;49.486;9.640;2024-03-23T02:18:14;4.07;;;3.30;;
57778;SDS011;43608;49.486;9.640;2024-03-23T02:18:44;3.60;;;3.10;;
57778;SDS011;43608;49.486;9.640;2024-03-23T02:19:15;4.82;;;3.35;;
57778;SDS011;43608;49.486;9.640;2024-03-23T02:19:45;4.25;;;3.38;;
57778;SDS011;43608;49.486;9.640;2024-03-23T02:20:16;4.00;;;3.15;;
57778;SDS011;43608;49.486;9.640;2024-03-23T02:20:47;4.75;;;3.30;;
57778;SDS011;43608;49.486;9.640;2024-03-23T02:21:17;4.20;;;3.30;;
57778;SDS011;43608;49.486;9.640;2024-03-23T02:21:47;4.22;;;3.22;;
57778;SDS011;43608;49.486;9.640;2024-03-23T02:22:18;4.53;;;3.40;;
57778;SDS011;43608;49.486;9.640;2024-03-23T02:22:50;4.25;;;3.20;;
57778;SDS011;43608;49.486;9.640;2024-03-23T02:23:22;3.58;;;3.13;;
57778;SDS011;43608;49.486;9.640;2024-03-23T02:23:54;3.60;;;2.78;;
57778;SDS011;43608;49.486;9.640;2024-03-23T02:24:24;3.90;;;3.20;;
57778;SDS011;43608;49.486;9.640;2024-03-23T02:24:55;3.60;;;3.10;;
57778;SDS011;43608;49.486;9.640;2024-03-23T02:25:25;3.75;;;3.13;;
57778;SDS011;43608;49.486;9.640;2024-03-23T02:25:55;3.95;;;3.28;;
57778;SDS011;43608;49.486;9.640;2024-03-23T02:26:26;4.22;;;3.38;;
57778;SDS011;43608;49.486;9.640;2024-03-23T02:26:57;4.32;;;3.20;;
57778;SDS011;43608;49.486;9.640;2024-03-23T02:27:27;3.72;;;3.15;;
57778;SDS011;43608;49.486;9.640;2024-03-23T02:27:58;4.20;;;3.40;;
57778;SDS011;43608;49.486;9.640;2024-03-23T02:28:28;3.50;;;3.03;;
57778;SDS011;43608;49.486;9.640;2024-03-23T02:28:59;3.83;;;3.15;;
57778;SDS011;43608;49.486;9.640;2024-03-23T02:29:30;4.40;;;2.92;;
57778;SDS011;43608;49.486;9.640;2024-03-23T02:30:00;3.70;;;3.10;;
57778;SDS011;43608;49.486;9.640;2024-03-23T02:30:31;3.78;;;3.10;;
57778;SDS011;43608;49.486;9.640;2024-03-23T02:31:01;4.43;;;3.25;;
57778;SDS011;43608;49.486;9.640;2024-03-23T02:31:32;4.30;;;3.20;;
57778;SDS011;43608;49.486;9.640;2024-03-23T02:32:02;3.83;;;3.05;;
57778;SDS011;43608;49.486;9.640;2024-03-23T02:32:33;4.22;;;3.47;;
57778;SDS011;43608;49.486;9.640;2024-03-23T02:33:03;3.75;;;3.10;;
57778;SDS011;43608;49.486;9.640;2024-03-23T02:33:34;4.25;;;3.20;;
57778;SDS011;43608;49.486;9.640;2024-03-23T02:34:08;4.20;;;3.20;;
57778;SDS011;43608;49.486;9.640;2024-03-23T02:34:38;4.40;;;3.80;;
57778;SDS011;43608;49.486;9.640;2024-03-23T02:35:08;4.57;;;3.42;;
57778;SDS011;43608;49.486;9.640;2024-03-23T02:35:38;3.88;;;3.22;;
57778;SDS011;43608;49.486;9.640;2024-03-23T02:36:09;4.00;;;3.45;;
57778;SDS011;43608;49.486;9.640;2024-03-23T02:36:39;5.07;;;3.67;;
57778;SDS011;43608;49.486;9.640;2024-03-23T02:37:10;5.15;;;3.60;;
57778;SDS011;43608;49.486;9.640;2024-03-23T02:37:41;4.65;;;3.28;;
57778;SDS011;43608;49.486;9.640;2024-03-23T02:38:11;5.40;;;3.75;;
57778;SDS011;43608;49.486;9.640;2024-03-23T02:38:42;5.20;;;3.92;;
57778;SDS011;43608;49.486;9.640;2024-03-23T02:39:12;4.20;;;3.40;;
57778;SDS011;43608;49.486;9.640;2024-03-23T02:39:42;4.38;;;3.70;;
57778;SDS011;43608;49.486;9.640;2024-03-23T02:40:13;4.47;;;3.60;;
57778;SDS011;43608;49.486;9.640;2024-03-23T02:40:43;4.63;;;3.70;;
57778;SDS011;43608;49.486;9.640;2024-03-23T02:41:13;5.05;;;3.78;;
57778;SDS011;43608;49.486;9.640;2024-03-23T02:41:44;6.35;;;4.30;;
57778;SDS011;43608;49.486;9.640;2024-03-23T02:42:14;5.85;;;4.00;;
57778;SDS011;43608;49.486;9.640;2024-03-23T02:42:47;4.97;;;3.90;;
57778;SDS011;43608;49.486;9.640;2024-03-23T02:43:17;4.95;;;4.03;;
57778;SDS011;43608;49.486;9.640;2024-03-23T02:43:49;5.07;;;4.00;;
57778;SDS011;43608;49.486;9.640;2024-03-23T02:44:20;5.15;;;3.97;;
57778;SDS011;43608;49.486;9.640;2024-03-23T02:44:50;4.78;;;4.07;;
57778;SDS011;43608;49.486;9.640;2024-03-23T02:45:20;4.53;;;3.53;;
57778;SDS011;43608;49.486;9.640;2024-03-23T02:45:51;4.80;;;4.07;;
57778;SDS011;43608;49.486;9.640;2024-03-23T02:46:21;4.85;;;3.85;;
57778;SDS011;43608;49.486;9.640;2024-03-23T02:46:51;5.25;;;4.07;;
57778;SDS011;43608;49.486;9.640;2024-03-23T02:47:22;4.68;;;3.63;;
57778;SDS011;43608;49.486;9.640;2024-03-23T02:47:52;4.88;;;3.65;;
57778;SDS011;43608;49.486;9.640;2024-03-23T02:48:23;5.35;;;3.85;;
57778;SDS011;43608;49.486;9.640;2024-03-23T02:48:54;4.75;;;3.78;;
57778;SDS011;43608;49.486;9.640;2024-03-23T02:49:25;4.90;;;3.85;;
57778;SDS011;43608;49.486;9.640;2024-03-23T02:49:55;5.68;;;3.75;;
57778;SDS011;43608;49.486;9.640;2024-03-23T02:50:26;4.97;;;3.80;;
57778;SDS011;43608;49.486;9.640;2024-03-23T02:50:56;4.47;;;3.75;;
57778;SDS011;43608;49.486;9.640;2024-03-23T02:51:26;4.32;;;3.60;;
57778;SDS011;43608;49.486;9.640;2024-03-23T02:51:57;4.60;;;3.78;;
57778;SDS011;43608;49.486;9.640;2024-03-23T02:52:27;4.57;;;3.83;;
57778;SDS011;43608;49.486;9.640;2024-03-23T02:52:57;4.55;;;3.90;;
57778;SDS011;43608;49.486;9.640;2024-03-23T02:53:28;4.55;;;3.70;;
57778;SDS011;43608;49.486;9.640;2024-03-23T02:53:58;4.70;;;3.90;;
57778;SDS011;43608;49.486;9.640;2024-03-23T02:54:28;5.38;;;3.70;;
57778;SDS011;43608;49.486;9.640;2024-03-23T02:54:59;5.10;;;4.10;;
57778;SDS011;43608;49.486;9.640;2024-03-23T02:55:29;5.63;;;4.20;;
57778;SDS011;43608;49.486;9.640;2024-03-23T02:55:59;6.47;;;4.47;;
57778;SDS011;43608;49.486;9.640;2024-03-23T02:56:31;4.85;;;4.00;;
57778;SDS011;43608;49.486;9.640;2024-03-23T02:57:02;5.15;;;3.80;;
57778;SDS011;43608;49.486;9.640;2024-03-23T02:57:33;4.95;;;4.10;;
57778;SDS011;43608;49.486;9.640;2024-03-23T02:58:03;5.18;;;4.10;;
57778;SDS011;43608;49.486;9.640;2024-03-23T02:58:34;5.05;;;3.90;;
57778;SDS011;43608;49.486;9.640;2024-03-23T02:59:04;5.13;;;3.90;;
57778;SDS011;43608;49.486;9.640;2024-03-23T02:59:35;4.68;;;3.70;;
57778;SDS011;43608;49.486;9.640;2024-03-23T03:00:05;4.85;;;4.10;;
57778;SDS011;43608;49.486;9.640;2024-03-23T03:00:37;5.22;;;4.10;;
57778;SDS011;43608;49.486;9.640;2024-03-23T03:01:07;5.40;;;3.95;;
57778;SDS011;43608;49.486;9.640;2024-03-23T03:01:38;5.10;;;4.05;;
57778;SDS011;43608;49.486;9.640;2024-03-23T03:02:08;5.18;;;4.13;;
57778;SDS011;43608;49.486;9.640;2024-03-23T03:02:38;5.82;;;3.90;;
57778;SDS011;43608;49.486;9.640;2024-03-23T03:03:09;6.10;;;3.90;;
57778;SDS011;43608;49.486;9.640;2024-03-23T03:03:39;4.53;;;3.80;;
57778;SDS011;43608;49.486;9.640;2024-03-23T03:04:09;5.18;;;3.80;;
57778;SDS011;43608;49.486;9.640;2024-03-23T03:04:40;4.05;;;3.65;;
57778;SDS011;43608;49.486;9.640;2024-03-23T03:05:10;5.05;;;4.00;;
57778;SDS011;43608;49.486;9.640;2024-03-23T03:05:42;4.80;;;4.00;;
57778;SDS011;43608;49.486;9.640;2024-03-23T03:06:22;4.22;;;3.42;;
57778;SDS011;43608;49.486;9.640;2024-03-23T03:06:53;5.50;;;3.65;;
57778;SDS011;43608;49.486;9.640;2024-03-23T03:07:23;4.43;;;3.42;;
57778;SDS011;43608;49.486;9.640;2024-03-23T03:07:54;3.88;;;3.28;;
57778;SDS011;43608;49.486;9.640;2024-03-23T03:08:24;3.90;;;3.40;;
57778;SDS011;43608;49.486;9.640;2024-03-23T03:08:54;4.10;;;3.20;;
57778;SDS011;43608;49.486;9.640;2024-03-23T03:09:25;4.15;;;3.20;;
57778;SDS011;43608;49.486;9.640;2024-03-23T03:09:55;4.25;;;3.30;;
57778;SDS011;43608;49.486;9.640;2024-03-23T03:10:25;3.70;;;3.00;;
57778;SDS011;43608;49.486;9.640;2024-03-23T03:10:56;4.22;;;3.30;;
57778;SDS011;43608;49.486;9.640;2024-03-23T03:11:26;4.10;;;3.60;;
57778;SDS011;43608;49.486;9.640;2024-03-23T03:11:56;3.72;;;3.10;;
57778;SDS011;43608;49.486;9.640;2024-03-23T03:12:27;3.78;;;3.05;;
57778;SDS011;43608;49.486;9.640;2024-03-23T03:12:57;4.18;;;3.20;;
57778;SDS011;43608;49.486;9.640;2024-03-23T03:13:27;3.90;;;3.20;;
57778;SDS011;43608;49.486;9.640;2024-03-23T03:13:58;3.70;;;3.17;;
57778;SDS011;43608;49.486;9.640;2024-03-23T03:14:30;4.97;;;3.50;;
57778;SDS011;43608;49.486;9.640;2024-03-23T03:15:00;4.43;;;3.58;;
57778;SDS011;43608;49.486;9.640;2024-03-23T03:15:31;4.32;;;3.42;;
57778;SDS011;43608;49.486;9.640;2024-03-23T03:16:01;4.20;;;3.38;;
57778;SDS011;43608;49.486;9.640;2024-03-23T03:16:32;4.30;;;3.38;;
57778;SDS011;43608;49.486;9.640;2024-03-23T03:17:02;4.18;;;3.50;;
57778;SDS011;43608;49.486;9.640;2024-03-23T03:17:32;4.03;;;3.58;;
57778;SDS011;43608;49.486;9.640;2024-03-23T03:18:03;4.47;;;3.67;;
57778;SDS011;43608;49.486;9.640;2024-03-23T03:18:33;4.40;;;3.72;;
57778;SDS011;43608;49.486;9.640;2024-03-23T03:19:04;4.43;;;3.63;;
57778;SDS011;43608;49.486;9.640;2024-03-23T03:19:34;4.78;;;3.63;;
57778;SDS011;43608;49.486;9.640;2024-03-23T03:20:04;4.50;;;3.60;;
57778;SDS011;43608;49.486;9.640;2024-03-23T03:20:39;4.50;;;3.55;;
57778;SDS011;43608;49.486;9.640;2024-03-23T03:21:09;4.20;;;3.55;;
57778;SDS011;43608;49.486;9.640;2024-03-23T03:21:43;4.65;;;3.70;;
57778;SDS011;43608;49.486;9.640;2024-03-23T03:22:13;4.05;;;3.47;;
57778;SDS011;43608;49.486;9.640;2024-03-23T03:22:44;4.25;;;3.63;;
57778;SDS011;43608;49.486;9.640;2024-03-23T03:23:14;5.20;;;3.40;;
57778;SDS011;43608;49.486;9.640;2024-03-23T03:23:44;4.80;;;3.63;;
57778;SDS011;43608;49.486;9.640;2024-03-23T03:24:15;4.95;;;3.70;;
57778;SDS011;43608;49.486;9.640;2024-03-23T03:24:45;4.10;;;3.58;;
57778;SDS011;43608;49.486;9.640;2024-03-23T03:25:16;4.38;;;3.50;;
57778;SDS011;43608;49.486;9.640;2024-03-23T03:25:46;4.45;;;3.67;;
57778;SDS011;43608;49.486;9.640;2024-03-23T03:26:17;4.45;;;3.53;;
57778;SDS011;43608;49.486;9.640;2024-03-23T03:26:47;3.90;;;3.20;;
57778;SDS011;43608;49.486;9.640;2024-03-23T03:27:17;3.60;;;3.05;;
57778;SDS011;43608;49.486;9.640;2024-03-23T03:27:48;4.00;;;3.10;;
57778;SDS011;43608;49.486;9.640;2024-03-23T03:28:18;4.25;;;3.50;;
57778;SDS011;43608;49.486;9.640;2024-03-23T03:28:50;4.30;;;3.20;;
57778;SDS011;43608;49.486;9.640;2024-03-23T03:29:20;3.70;;;3.17;;
57778;SDS011;43608;49.486;9.640;2024-03-23T03:29:51;3.83;;;3.17;;
57778;SDS011;43608;49.486;9.640;2024-03-23T03:30:21;4.45;;;3.42;;
57778;SDS011;43608;49.486;9.640;2024-03-23T03:30:51;4.05;;;3.17;;
57778;SDS011;43608;49.486;9.640;2024-03-23T03:31:22;4.82;;;3.38;;
57778;SDS011;43608;49.486;9.640;2024-03-23T03:31:52;3.85;;;3.13;;
57778;SDS011;43608;49.486;9.640;2024-03-23T03:32:22;3.88;;;3.30;;
57778;SDS011;43608;49.486;9.640;2024-03-23T03:32:53;3.78;;;3.10;;
57778;SDS011;43608;49.486;9.640;2024-03-23T03:33:26;4.03;;;3.10;;
57778;SDS011;43608;49.486;9.640;2024-03-23T03:33:57;3.90;;;3.00;;
57778;SDS011;43608;49.486;9.640;2024-03-23T03:34:27;3.65;;;3.10;;
57778;SDS011;43608;49.486;9.640;2024-03-23T03:34:58;4.07;;;3.10;;
57778;SDS011;43608;49.486;9.640;2024-03-23T03:35:29;3.90;;;3.10;;
57778;SDS011;43608;49.486;9.640;2024-03-23T03:36:00;4.55;;;3.70;;
57778;SDS011;43608;49.486;9.640;2024-03-23T03:36:30;4.32;;;3.60;;
57778;SDS011;43608;49.486;9.640;2024-03-23T03:37:01;5.63;;;3.60;;
57778;SDS011;43608;49.486;9.640;2024-03-23T03:37:31;4.55;;;3.65;;
57778;SDS011;43608;49.486;9.640;2024-03-23T03:38:01;4.57;;;3.53;;
57778;SDS011;43608;49.486;9.640;2024-03-23T03:38:32;4.72;;;3.30;;
57778;SDS011;43608;49.486;9.640;2024-03-23T03:39:02;4.65;;;3.60;;
57778;SDS011;43608;49.486;9.640;2024-03-23T03:39:33;5.10;;;3.70;;
57778;SDS011;43608;49.486;9.640;2024-03-23T03:40:04;4.28;;;3.40;;
57778;SDS011;43608;49.486;9.640;2024-03-23T03:40:35;5.13;;;3.80;;
57778;SDS011;43608;49.486;9.640;2024-03-23T03:41:05;4.18;;;3.65;;
57778;SDS011;43608;49.486;9.640;2024-03-23T03:41:36;4.78;;;3.60;;
57778;SDS011;43608;49.486;9.640;2024-03-23T03:42:06;4.57;;;3.50;;
57778;SDS011;43608;49.486;9.640;2024-03-23T03:42:37;4.40;;;3.53;;
57778;SDS011;43608;49.486;9.640;2024-03-23T03:43:07;4.25;;;3.55;;
57778;SDS011;43608;49.486;9.640;2024-03-23T03:43:38;4.53;;;3.53;;
57778;SDS011;43608;49.486;9.640;2024-03-23T03:44:08;4.30;;;3.45;;
57778;SDS011;43608;49.486;9.640;2024-03-23T03:44:38;3.67;;;3.10;;
57778;SDS011;43608;49.486;9.640;2024-03-23T03:45:09;4.47;;;3.50;;
57778;SDS011;43608;49.486;9.640;2024-03-23T03:45:40;4.63;;;3.75;;
57778;SDS011;43608;49.486;9.640;2024-03-23T03:46:10;5.10;;;3.38;;
57778;SDS011;43608;49.486;9.640;2024-03-23T03:46:40;4.20;;;3.50;;
57778;SDS011;43608;49.486;9.640;2024-03-23T03:47:11;4.97;;;4.10;;
57778;SDS011;43608;49.486;9.640;2024-03-23T03:47:41;4.13;;;3.40;;
57778;SDS011;43608;49.486;9.640;2024-03-23T03:48:11;4.47;;;3.60;;
57778;SDS011;43608;49.486;9.640;2024-03-23T03:48:42;4.63;;;3.60;;
57778;SDS011;43608;49.486;9.640;2024-03-23T03:49:14;5.53;;;4.03;;
57778;SDS011;43608;49.486;9.640;2024-03-23T03:49:45;4.20;;;3.72;;
57778;SDS011;43608;49.486;9.640;2024-03-23T03:50:15;4.90;;;3.95;;
57778;SDS011;43608;49.486;9.640;2024-03-23T03:50:46;5.55;;;3.70;;
57778;SDS011;43608;49.486;9.640;2024-03-23T03:51:16;4.28;;;3.60;;
57778;SDS011;43608;49.486;9.640;2024-03-23T03:51:46;4.40;;;3.65;;
57778;SDS011;43608;49.486;9.640;2024-03-23T03:52:17;4.05;;;3.28;;
57778;SDS011;43608;49.486;9.640;2024-03-23T03:52:47;4.05;;;3.28;;
57778;SDS011;43608;49.486;9.640;2024-03-23T03:53:17;5.07;;;3.65;;
57778;SDS011;43608;49.486;9.640;2024-03-23T03:53:48;4.85;;;3.60;;
57778;SDS011;43608;49.486;9.640;2024-03-23T03:54:18;4.22;;;3.40;;
57778;SDS011;43608;49.486;9.640;2024-03-23T03:54:48;3.90;;;3.05;;
57778;SDS011;43608;49.486;9.640;2024-03-23T03:55:19;4.35;;;3.05;;
57778;SDS011;43608;49.486;9.640;2024-03-23T03:55:49;4.55;;;3.42;;
57778;SDS011;43608;49.486;9.640;2024-03-23T03:56:20;4.68;;;3.60;;
57778;SDS011;43608;49.486;9.640;2024-03-23T03:56:51;4.78;;;3.40;;
57778;SDS011;43608;49.486;9.640;2024-03-23T03:57:22;4.15;;;3.45;;